CheckWX is a tool to help pilots better visualize weather data.  It is not intended as a substitute for an official pre-flight weather briefing.

06:57:37 UTC

UGSB TAF
Batumi International Airport
Batumi, Georgia
TAF UGSB 190500Z 1906/2006 26007KT 9999 FEW023 SCT130 TX27/1912Z TN21/2000Z PROB40 TEMPO 1906/1910 VRB12KT TSRA SCT015 BKN025CB TEMPO 1916/1922 TSRA SCT015 BKN025CB TEMPO 1918/2006 13010KT

Jun-19@
06:00 UTC

Jun-19 @ 06:00 UTC

Jun-20@
06:00 UTC

Jun-20 @ 06:00 UTC

TAF UGSB 190500Z 1906/2006 26007KT 9999 FEW023 SCT130 TX27/1912Z TN21/2000Z
Wind
  • 260° at 7 KTS
Cloud Levels
  • Few at 2,300' AGL
  • Scattered at 13,000' AGL

Jun-19@
06:00 UTC

Jun-19 @ 06:00 UTC

Jun-19@
10:00 UTC

Jun-19 @ 10:00 UTC

PROB40 TEMPO 1906/1910 VRB12KT TSRA SCT015 BKN025CB

Temporary - 40% Likelihood

Temporary - 40% Likelihood during this time.

Wind
  • Variable at 12 KTS
Conditions
Thunderstorm, Rain
Cloud Levels
  • Scattered at 1,500' AGL
  • Broken at 2,500' AGL

Jun-19@
16:00 UTC

Jun-19 @ 16:00 UTC

Jun-19@
22:00 UTC

Jun-19 @ 22:00 UTC

TEMPO 1916/1922 TSRA SCT015 BKN025CB

Temporary

Temporary Changes expected for less than half the time period

Conditions
Thunderstorm, Rain
Cloud Levels
  • Scattered at 1,500' AGL
  • Broken at 2,500' AGL

Jun-19@
18:00 UTC

Jun-19 @ 18:00 UTC

Jun-20@
06:00 UTC

Jun-20 @ 06:00 UTC

TEMPO 1918/2006 13010KT

Temporary

Temporary Changes expected for less than half the time period

Wind
  • 130° at 10 KTS